sensor_id;sensor_type;location;lat;lon;timestamp;pressure;altitude;pressure_sealevel;temperature;humidity
51289;BME280;37372;52.294;5.152;2022-11-04T00:01:40;100022.53;;;10.06;100.00
51289;BME280;37372;52.294;5.152;2022-11-04T00:04:06;100023.44;;;9.99;100.00
51289;BME280;37372;52.294;5.152;2022-11-04T00:06:32;100024.22;;;9.99;100.00
51289;BME280;37372;52.294;5.152;2022-11-04T00:08:58;100036.16;;;10.04;100.00
51289;BME280;37372;52.294;5.152;2022-11-04T00:11:25;100036.16;;;10.04;100.00
51289;BME280;37372;52.294;5.152;2022-11-04T00:14:10;100035.81;;;10.02;100.00
51289;BME280;37372;52.294;5.152;2022-11-04T00:16:36;100041.34;;;10.05;100.00
51289;BME280;37372;52.294;5.152;2022-11-04T00:19:20;100043.69;;;10.07;100.00
51289;BME280;37372;52.294;5.152;2022-11-04T00:21:45;100045.63;;;10.10;100.00
51289;BME280;37372;52.294;5.152;2022-11-04T00:24:29;100054.53;;;10.05;100.00
51289;BME280;37372;52.294;5.152;2022-11-04T00:27:18;100054.91;;;10.07;100.00
51289;BME280;37372;52.294;5.152;2022-11-04T00:30:05;100066.63;;;10.02;100.00
51289;BME280;37372;52.294;5.152;2022-11-04T00:32:32;100068.28;;;9.99;100.00
51289;BME280;37372;52.294;5.152;2022-11-04T00:35:16;100067.63;;;9.91;100.00
51289;BME280;37372;52.294;5.152;2022-11-04T00:37:42;100068.50;;;9.88;100.00
51289;BME280;37372;52.294;5.152;2022-11-04T00:40:10;100061.31;;;9.87;100.00
51289;BME280;37372;52.294;5.152;2022-11-04T00:42:36;100078.81;;;9.91;100.00
51289;BME280;37372;52.294;5.152;2022-11-04T00:45:02;100083.72;;;9.87;100.00
51289;BME280;37372;52.294;5.152;2022-11-04T00:47:28;100088.84;;;9.92;100.00
51289;BME280;37372;52.294;5.152;2022-11-04T00:49:53;100090.91;;;9.88;100.00
51289;BME280;37372;52.294;5.152;2022-11-04T00:52:18;100090.81;;;9.92;100.00
51289;BME280;37372;52.294;5.152;2022-11-04T00:54:44;100103.75;;;9.86;100.00
51289;BME280;37372;52.294;5.152;2022-11-04T00:57:11;100113.44;;;9.81;100.00
51289;BME280;37372;52.294;5.152;2022-11-04T00:59:36;100113.56;;;9.74;100.00
51289;BME280;37372;52.294;5.152;2022-11-04T01:02:02;100118.44;;;9.70;100.00
51289;BME280;37372;52.294;5.152;2022-11-04T01:04:28;100124.91;;;9.67;100.00
51289;BME280;37372;52.294;5.152;2022-11-04T01:06:53;100118.56;;;9.63;100.00
51289;BME280;37372;52.294;5.152;2022-11-04T01:09:19;100127.38;;;9.61;100.00
51289;BME280;37372;52.294;5.152;2022-11-04T01:11:44;100126.34;;;9.51;100.00
51289;BME280;37372;52.294;5.152;2022-11-04T01:14:09;100116.94;;;9.42;100.00
51289;BME280;37372;52.294;5.152;2022-11-04T01:16:35;100121.28;;;9.43;100.00
51289;BME280;37372;52.294;5.152;2022-11-04T01:19:00;100140.59;;;9.37;100.00
51289;BME280;37372;52.294;5.152;2022-11-04T01:21:26;100147.75;;;9.38;100.00
51289;BME280;37372;52.294;5.152;2022-11-04T01:23:52;100149.34;;;9.39;100.00
51289;BME280;37372;52.294;5.152;2022-11-04T01:26:20;100161.53;;;9.52;100.00
51289;BME280;37372;52.294;5.152;2022-11-04T01:28:46;100158.78;;;9.49;100.00
51289;BME280;37372;52.294;5.152;2022-11-04T01:31:14;100158.38;;;9.50;100.00
51289;BME280;37372;52.294;5.152;2022-11-04T01:33:39;100160.41;;;9.46;100.00
51289;BME280;37372;52.294;5.152;2022-11-04T01:36:06;100165.59;;;9.48;100.00
51289;BME280;37372;52.294;5.152;2022-11-04T01:38:32;100169.97;;;9.49;100.00
51289;BME280;37372;52.294;5.152;2022-11-04T01:40:58;100166.75;;;9.50;100.00
51289;BME280;37372;52.294;5.152;2022-11-04T01:46:16;100179.53;;;9.51;100.00
51289;BME280;37372;52.294;5.152;2022-11-04T01:48:44;100174.38;;;9.50;100.00
51289;BME280;37372;52.294;5.152;2022-11-04T01:51:10;100177.22;;;9.46;100.00
51289;BME280;37372;52.294;5.152;2022-11-04T01:53:38;100185.28;;;9.44;100.00
51289;BME280;37372;52.294;5.152;2022-11-04T01:56:07;100175.63;;;9.45;100.00
51289;BME280;37372;52.294;5.152;2022-11-04T01:58:42;100191.59;;;9.48;100.00
51289;BME280;37372;52.294;5.152;2022-11-04T02:01:09;100203.63;;;9.45;100.00
51289;BME280;37372;52.294;5.152;2022-11-04T02:03:38;100205.38;;;9.35;100.00
51289;BME280;37372;52.294;5.152;2022-11-04T02:06:05;100210.09;;;9.42;100.00
51289;BME280;37372;52.294;5.152;2022-11-04T02:08:31;100219.69;;;9.41;100.00
51289;BME280;37372;52.294;5.152;2022-11-04T02:10:59;100213.38;;;9.37;100.00
51289;BME280;37372;52.294;5.152;2022-11-04T02:13:26;100229.38;;;9.37;100.00
51289;BME280;37372;52.294;5.152;2022-11-04T02:16:23;100228.09;;;9.41;100.00
51289;BME280;37372;52.294;5.152;2022-11-04T02:22:07;100229.31;;;9.40;100.00
51289;BME280;37372;52.294;5.152;2022-11-04T02:24:52;100227.09;;;9.28;100.00
51289;BME280;37372;52.294;5.152;2022-11-04T02:27:30;100234.78;;;9.20;100.00
51289;BME280;37372;52.294;5.152;2022-11-04T02:32:51;100248.75;;;9.24;100.00
51289;BME280;37372;52.294;5.152;2022-11-04T02:46:42;100265.94;;;9.22;100.00
51289;BME280;37372;52.294;5.152;2022-11-04T02:49:19;100272.72;;;9.25;100.00
51289;BME280;37372;52.294;5.152;2022-11-04T02:54:29;100280.00;;;9.19;100.00
51289;BME280;37372;52.294;5.152;2022-11-04T02:56:58;100280.91;;;9.08;100.00
51289;BME280;37372;52.294;5.152;2022-11-04T03:01:55;100277.06;;;8.95;100.00
51289;BME280;37372;52.294;5.152;2022-11-04T03:04:30;100281.94;;;8.91;100.00
51289;BME280;37372;52.294;5.152;2022-11-04T03:06:58;100279.50;;;8.93;100.00
51289;BME280;37372;52.294;5.152;2022-11-04T03:09:27;100285.50;;;8.91;100.00
51289;BME280;37372;52.294;5.152;2022-11-04T03:11:59;100288.06;;;8.79;100.00
51289;BME280;37372;52.294;5.152;2022-11-04T03:14:34;100288.47;;;8.77;100.00
51289;BME280;37372;52.294;5.152;2022-11-04T03:17:04;100286.56;;;8.71;100.00
51289;BME280;37372;52.294;5.152;2022-11-04T03:19:39;100295.00;;;8.63;100.00
51289;BME280;37372;52.294;5.152;2022-11-04T03:22:14;100292.72;;;8.51;100.00
51289;BME280;37372;52.294;5.152;2022-11-04T03:24:42;100295.97;;;8.46;100.00
51289;BME280;37372;52.294;5.152;2022-11-04T03:29:56;100297.63;;;8.36;100.00
51289;BME280;37372;52.294;5.152;2022-11-04T03:35:15;100297.69;;;8.29;100.00
51289;BME280;37372;52.294;5.152;2022-11-04T03:37:42;100311.31;;;8.23;100.00
51289;BME280;37372;52.294;5.152;2022-11-04T03:40:09;100308.56;;;8.20;100.00
51289;BME280;37372;52.294;5.152;2022-11-04T03:42:39;100309.81;;;8.15;100.00
51289;BME280;37372;52.294;5.152;2022-11-04T03:45:09;100301.03;;;8.17;100.00
51289;BME280;37372;52.294;5.152;2022-11-04T03:47:35;100312.19;;;8.13;100.00
51289;BME280;37372;52.294;5.152;2022-11-04T03:50:11;100313.41;;;8.12;100.00
51289;BME280;37372;52.294;5.152;2022-11-04T03:52:37;100320.19;;;8.11;100.00
51289;BME280;37372;52.294;5.152;2022-11-04T03:55:04;100317.78;;;8.13;100.00
51289;BME280;37372;52.294;5.152;2022-11-04T03:57:47;100321.81;;;8.12;100.00
51289;BME280;37372;52.294;5.152;2022-11-04T04:00:21;100328.97;;;8.13;100.00
51289;BME280;37372;52.294;5.152;2022-11-04T04:03:06;100329.75;;;8.14;100.00
51289;BME280;37372;52.294;5.152;2022-11-04T04:08:18;100324.22;;;8.10;100.00
51289;BME280;37372;52.294;5.152;2022-11-04T04:16:13;100332.56;;;8.14;100.00
51289;BME280;37372;52.294;5.152;2022-11-04T04:18:52;100332.94;;;8.16;100.00
51289;BME280;37372;52.294;5.152;2022-11-04T04:21:22;100345.69;;;8.20;100.00
51289;BME280;37372;52.294;5.152;2022-11-04T04:23:51;100347.66;;;8.23;100.00
51289;BME280;37372;52.294;5.152;2022-11-04T04:26:38;100344.03;;;8.26;100.00
51289;BME280;37372;52.294;5.152;2022-11-04T04:29:24;100355.97;;;8.31;100.00
51289;BME280;37372;52.294;5.152;2022-11-04T04:31:52;100355.16;;;8.34;100.00
51289;BME280;37372;52.294;5.152;2022-11-04T04:34:29;100363.09;;;8.39;100.00
51289;BME280;37372;52.294;5.152;2022-11-04T04:36:56;100363.91;;;8.36;100.00
51289;BME280;37372;52.294;5.152;2022-11-04T04:39:25;100364.72;;;8.40;100.00
51289;BME280;37372;52.294;5.152;2022-11-04T04:42:10;100371.47;;;8.39;100.00
51289;BME280;37372;52.294;5.152;2022-11-04T04:44:54;100381.06;;;8.38;100.00
51289;BME280;37372;52.294;5.152;2022-11-04T04:47:37;100375.94;;;8.33;100.00
51289;BME280;37372;52.294;5.152;2022-11-04T04:50:04;100378.72;;;8.33;100.00
51289;BME280;37372;52.294;5.152;2022-11-04T04:52:33;100384.69;;;8.35;100.00
51289;BME280;37372;52.294;5.152;2022-11-04T04:54:59;100372.31;;;8.36;100.00
51289;BME280;37372;52.294;5.152;2022-11-04T04:57:25;100383.88;;;8.38;100.00
51289;BME280;37372;52.294;5.152;2022-11-04T04:59:50;100384.66;;;8.38;100.00
51289;BME280;37372;52.294;5.152;2022-11-04T05:02:15;100375.91;;;8.40;100.00
51289;BME280;37372;52.294;5.152;2022-11-04T05:04:41;100383.06;;;8.41;100.00
51289;BME280;37372;52.294;5.152;2022-11-04T05:07:06;100386.25;;;8.43;100.00
51289;BME280;37372;52.294;5.152;2022-11-04T05:09:33;100386.66;;;8.45;100.00
51289;BME280;37372;52.294;5.152;2022-11-04T05:11:59;100391.00;;;8.46;100.00
51289;BME280;37372;52.294;5.152;2022-11-04T05:14:24;100402.97;;;8.46;100.00
51289;BME280;37372;52.294;5.152;2022-11-04T05:16:49;100395.00;;;8.48;100.00
51289;BME280;37372;52.294;5.152;2022-11-04T05:19:15;100402.19;;;8.46;100.00
51289;BME280;37372;52.294;5.152;2022-11-04T05:21:41;100404.19;;;8.45;100.00
51289;BME280;37372;52.294;5.152;2022-11-04T05:24:07;100409.81;;;8.42;100.00
51289;BME280;37372;52.294;5.152;2022-11-04T05:26:32;100402.59;;;8.44;100.00
51289;BME280;37372;52.294;5.152;2022-11-04T05:28:57;100404.59;;;8.44;100.00
51289;BME280;37372;52.294;5.152;2022-11-04T05:31:23;100403.03;;;8.43;100.00
51289;BME280;37372;52.294;5.152;2022-11-04T05:33:48;100400.22;;;8.43;100.00
51289;BME280;37372;52.294;5.152;2022-11-04T05:36:15;100407.00;;;8.42;100.00
51289;BME280;37372;52.294;5.152;2022-11-04T05:38:41;100407.81;;;8.42;100.00
51289;BME280;37372;52.294;5.152;2022-11-04T05:41:09;100411.81;;;8.41;100.00
51289;BME280;37372;52.294;5.152;2022-11-04T05:43:36;100412.22;;;8.36;100.00
51289;BME280;37372;52.294;5.152;2022-11-04T05:46:02;100418.22;;;8.35;100.00
51289;BME280;37372;52.294;5.152;2022-11-04T05:48:28;100419.84;;;8.29;100.00
51289;BME280;37372;52.294;5.152;2022-11-04T05:50:53;100424.66;;;8.28;100.00
51289;BME280;37372;52.294;5.152;2022-11-04T05:53:19;100427.84;;;8.26;100.00
51289;BME280;37372;52.294;5.152;2022-11-04T05:55:44;100424.25;;;8.30;100.00
51289;BME280;37372;52.294;5.152;2022-11-04T05:58:09;100422.25;;;8.26;100.00
51289;BME280;37372;52.294;5.152;2022-11-04T06:00:35;100423.09;;;8.23;100.00
51289;BME280;37372;52.294;5.152;2022-11-04T06:03:00;100424.69;;;8.24;100.00
51289;BME280;37372;52.294;5.152;2022-11-04T06:05:26;100427.09;;;8.22;100.00
51289;BME280;37372;52.294;5.152;2022-11-04T06:07:52;100428.69;;;8.23;100.00
51289;BME280;37372;52.294;5.152;2022-11-04T06:10:18;100424.69;;;8.24;100.00
51289;BME280;37372;52.294;5.152;2022-11-04T06:12:43;100427.84;;;8.26;100.00
51289;BME280;37372;52.294;5.152;2022-11-04T06:15:09;100437.88;;;8.20;100.00
51289;BME280;37372;52.294;5.152;2022-11-04T06:17:34;100438.28;;;8.22;100.00
51289;BME280;37372;52.294;5.152;2022-11-04T06:20:00;100437.50;;;8.18;100.00
51289;BME280;37372;52.294;5.152;2022-11-04T06:22:25;100446.25;;;8.20;100.00
51289;BME280;37372;52.294;5.152;2022-11-04T06:24:50;100453.84;;;8.20;100.00
51289;BME280;37372;52.294;5.152;2022-11-04T06:27:16;100452.63;;;8.24;100.00
51289;BME280;37372;52.294;5.152;2022-11-04T06:29:42;100460.25;;;8.20;100.00
51289;BME280;37372;52.294;5.152;2022-11-04T06:32:09;100465.44;;;8.18;100.00
51289;BME280;37372;52.294;5.152;2022-11-04T06:34:35;100464.25;;;8.19;100.00
51289;BME280;37372;52.294;5.152;2022-11-04T06:37:01;100465.03;;;8.16;100.00
51289;BME280;37372;52.294;5.152;2022-11-04T06:39:26;100465.47;;;8.15;100.00
51289;BME280;37372;52.294;5.152;2022-11-04T06:41:51;100468.66;;;8.13;100.00
51289;BME280;37372;52.294;5.152;2022-11-04T06:44:17;100474.28;;;8.10;100.00
51289;BME280;37372;52.294;5.152;2022-11-04T06:46:43;100475.06;;;8.10;100.00
51289;BME280;37372;52.294;5.152;2022-11-04T06:49:18;100477.84;;;8.10;100.00
51289;BME280;37372;52.294;5.152;2022-11-04T06:51:44;100478.25;;;8.12;100.00
51289;BME280;37372;52.294;5.152;2022-11-04T06:54:10;100479.81;;;8.13;100.00
51289;BME280;37372;52.294;5.152;2022-11-04T06:56:36;100486.22;;;8.14;100.00
51289;BME280;37372;52.294;5.152;2022-11-04T06:59:02;100487.81;;;8.11;100.00
51289;BME280;37372;52.294;5.152;2022-11-04T07:01:29;100493.41;;;8.11;100.00
51289;BME280;37372;52.294;5.152;2022-11-04T07:03:57;100500.66;;;8.01;100.00
51289;BME280;37372;52.294;5.152;2022-11-04T07:06:23;100507.44;;;8.00;100.00
51289;BME280;37372;52.294;5.152;2022-11-04T07:08:50;100502.25;;;7.99;100.00
51289;BME280;37372;52.294;5.152;2022-11-04T07:11:16;100509.44;;;8.00;100.00
51289;BME280;37372;52.294;5.152;2022-11-04T07:13:42;100509.44;;;8.00;100.00
51289;BME280;37372;52.294;5.152;2022-11-04T07:16:08;100507.84;;;7.99;100.00
51289;BME280;37372;52.294;5.152;2022-11-04T07:18:34;100515.00;;;8.07;100.00
51289;BME280;37372;52.294;5.152;2022-11-04T07:21:00;100519.72;;;8.14;100.00
51289;BME280;37372;52.294;5.152;2022-11-04T07:23:26;100519.75;;;8.10;100.00
51289;BME280;37372;52.294;5.152;2022-11-04T07:25:51;100520.56;;;8.14;100.00
51289;BME280;37372;52.294;5.152;2022-11-04T07:28:18;100529.69;;;8.18;100.00
51289;BME280;37372;52.294;5.152;2022-11-04T07:30:44;100526.88;;;8.25;100.00
51289;BME280;37372;52.294;5.152;2022-11-04T07:33:09;100530.06;;;8.27;100.00
51289;BME280;37372;52.294;5.152;2022-11-04T07:35:35;100533.19;;;8.37;100.00
51289;BME280;37372;52.294;5.152;2022-11-04T07:38:01;100535.97;;;8.44;100.00
51289;BME280;37372;52.294;5.152;2022-11-04T07:40:28;100536.72;;;8.55;100.00
51289;BME280;37372;52.294;5.152;2022-11-04T07:42:53;100541.53;;;8.51;100.00
51289;BME280;37372;52.294;5.152;2022-11-04T07:45:19;100553.84;;;8.57;100.00
51289;BME280;37372;52.294;5.152;2022-11-04T07:47:44;100562.63;;;8.63;100.00
51289;BME280;37372;52.294;5.152;2022-11-04T07:50:10;100577.47;;;8.49;100.00
51289;BME280;37372;52.294;5.152;2022-11-04T07:52:36;100586.22;;;8.58;100.00
51289;BME280;37372;52.294;5.152;2022-11-04T07:55:02;100586.59;;;8.64;100.00
51289;BME280;37372;52.294;5.152;2022-11-04T07:57:28;100584.53;;;8.72;100.00
51289;BME280;37372;52.294;5.152;2022-11-04T07:59:53;100575.69;;;8.84;100.00
51289;BME280;37372;52.294;5.152;2022-11-04T08:02:19;100579.66;;;8.86;100.00
51289;BME280;37372;52.294;5.152;2022-11-04T08:04:44;100579.63;;;8.90;100.00
51289;BME280;37372;52.294;5.152;2022-11-04T08:07:10;100580.00;;;8.92;100.00
51289;BME280;37372;52.294;5.152;2022-11-04T08:09:36;100580.75;;;9.03;100.00
51289;BME280;37372;52.294;5.152;2022-11-04T08:12:03;100575.13;;;9.07;100.00
51289;BME280;37372;52.294;5.152;2022-11-04T08:14:29;100585.81;;;9.16;100.00
51289;BME280;37372;52.294;5.152;2022-11-04T08:16:55;100588.19;;;9.21;100.00
51289;BME280;37372;52.294;5.152;2022-11-04T08:19:20;100582.97;;;9.23;100.00
51289;BME280;37372;52.294;5.152;2022-11-04T08:21:45;100590.09;;;9.31;100.00
51289;BME280;37372;52.294;5.152;2022-11-04T08:24:11;100602.13;;;9.31;100.00
51289;BME280;37372;52.294;5.152;2022-11-04T08:26:37;100614.03;;;9.39;100.00
51289;BME280;37372;52.294;5.152;2022-11-04T08:29:06;100615.25;;;9.38;100.00
51289;BME280;37372;52.294;5.152;2022-11-04T08:31:32;100616.56;;;9.23;100.00
51289;BME280;37372;52.294;5.152;2022-11-04T08:33:58;100616.47;;;9.37;100.00
51289;BME280;37372;52.294;5.152;2022-11-04T08:36:30;100620.50;;;9.32;100.00
51289;BME280;37372;52.294;5.152;2022-11-04T08:38:56;100626.91;;;9.29;100.00
51289;BME280;37372;52.294;5.152;2022-11-04T08:41:26;100625.34;;;9.25;100.00
51289;BME280;37372;52.294;5.152;2022-11-04T08:43:54;100626.19;;;9.22;100.00
51289;BME280;37372;52.294;5.152;2022-11-04T08:46:19;100629.81;;;9.19;100.00
51289;BME280;37372;52.294;5.152;2022-11-04T08:48:45;100623.03;;;9.16;100.00
51289;BME280;37372;52.294;5.152;2022-11-04T08:51:23;100628.97;;;9.22;100.00
51289;BME280;37372;52.294;5.152;2022-11-04T08:53:49;100622.50;;;9.28;100.00
51289;BME280;37372;52.294;5.152;2022-11-04T08:56:24;100621.31;;;9.26;100.00
51289;BME280;37372;52.294;5.152;2022-11-04T08:58:50;100625.34;;;9.25;100.00
51289;BME280;37372;52.294;5.152;2022-11-04T09:01:18;100639.78;;;9.20;100.00
51289;BME280;37372;52.294;5.152;2022-11-04T09:03:45;100622.59;;;9.21;100.00
51289;BME280;37372;52.294;5.152;2022-11-04T09:06:14;100624.66;;;9.13;100.00
51289;BME280;37372;52.294;5.152;2022-11-04T09:08:40;100632.66;;;9.11;100.00
51289;BME280;37372;52.294;5.152;2022-11-04T09:11:07;100632.66;;;9.11;100.00
51289;BME280;37372;52.294;5.152;2022-11-04T09:13:33;100635.06;;;9.09;100.00
51289;BME280;37372;52.294;5.152;2022-11-04T09:15:58;100637.88;;;9.06;100.00
51289;BME280;37372;52.294;5.152;2022-11-04T09:18:24;100645.47;;;9.09;100.00
51289;BME280;37372;52.294;5.152;2022-11-04T09:20:49;100651.84;;;9.09;100.00
51289;BME280;37372;52.294;5.152;2022-11-04T09:23:14;100657.03;;;9.07;100.00
51289;BME280;37372;52.294;5.152;2022-11-04T09:25:40;100661.06;;;9.06;100.00
51289;BME280;37372;52.294;5.152;2022-11-04T09:28:05;100662.25;;;9.05;100.00
51289;BME280;37372;52.294;5.152;2022-11-04T09:30:31;100657.41;;;9.17;100.00
51289;BME280;37372;52.294;5.152;2022-11-04T09:32:57;100658.59;;;9.16;100.00
51289;BME280;37372;52.294;5.152;2022-11-04T09:35:23;100659.41;;;9.12;100.00
51289;BME280;37372;52.294;5.152;2022-11-04T09:37:48;100663.44;;;9.11;100.00
51289;BME280;37372;52.294;5.152;2022-11-04T09:40:17;100671.88;;;9.04;100.00
51289;BME280;37372;52.294;5.152;2022-11-04T09:45:33;100680.25;;;9.04;100.00
51289;BME280;37372;52.294;5.152;2022-11-04T09:48:05;100693.44;;;9.07;100.00
51289;BME280;37372;52.294;5.152;2022-11-04T09:50:45;100698.19;;;9.10;100.00
51289;BME280;37372;52.294;5.152;2022-11-04T09:53:17;100700.16;;;9.17;100.00
51289;BME280;37372;52.294;5.152;2022-11-04T09:55:59;100701.31;;;9.27;100.00
51289;BME280;37372;52.294;5.152;2022-11-04T09:58:35;100708.84;;;9.37;100.00
51289;BME280;37372;52.294;5.152;2022-11-04T10:01:25;100705.13;;;9.51;100.00
51289;BME280;37372;52.294;5.152;2022-11-04T10:18:13;100730.16;;;10.21;100.00
51289;BME280;37372;52.294;5.152;2022-11-04T10:23:26;100747.63;;;10.39;100.00
51289;BME280;37372;52.294;5.152;2022-11-04T10:26:04;100756.22;;;10.59;100.00
51289;BME280;37372;52.294;5.152;2022-11-04T10:28:40;100757.06;;;10.56;100.00
51289;BME280;37372;52.294;5.152;2022-11-04T10:31:10;100763.66;;;10.73;100.00
51289;BME280;37372;52.294;5.152;2022-11-04T10:33:40;100769.44;;;10.93;100.00
51289;BME280;37372;52.294;5.152;2022-11-04T10:36:09;100764.75;;;10.86;100.00
51289;BME280;37372;52.294;5.152;2022-11-04T10:38:43;100769.41;;;10.97;100.00
51289;BME280;37372;52.294;5.152;2022-11-04T10:43:50;100780.84;;;11.13;100.00
51289;BME280;37372;52.294;5.152;2022-11-04T10:48:55;100783.56;;;11.20;100.00
51289;BME280;37372;52.294;5.152;2022-11-04T10:51:25;100780.75;;;11.20;100.00
51289;BME280;37372;52.294;5.152;2022-11-04T10:53:55;100780.28;;;11.25;100.00
51289;BME280;37372;52.294;5.152;2022-11-04T10:56:32;100784.34;;;11.21;100.00
51289;BME280;37372;52.294;5.152;2022-11-04T10:59:26;100780.88;;;11.40;100.00
51289;BME280;37372;52.294;5.152;2022-11-04T11:01:55;100780.34;;;11.49;100.00
51289;BME280;37372;52.294;5.152;2022-11-04T11:04:29;100778.00;;;11.44;100.00
51289;BME280;37372;52.294;5.152;2022-11-04T11:06:57;100785.59;;;11.47;100.00
51289;BME280;37372;52.294;5.152;2022-11-04T11:09:34;100786.72;;;11.53;100.00
51289;BME280;37372;52.294;5.152;2022-11-04T11:14:38;100789.78;;;11.62;100.00
51289;BME280;37372;52.294;5.152;2022-11-04T11:19:54;100803.66;;;11.46;100.00
51289;BME280;37372;52.294;5.152;2022-11-04T11:22:37;100813.53;;;11.58;100.00
51289;BME280;37372;52.294;5.152;2022-11-04T11:27:40;100821.38;;;11.70;100.00
51289;BME280;37372;52.294;5.152;2022-11-04T11:33:21;100829.78;;;11.73;100.00
51289;BME280;37372;52.294;5.152;2022-11-04T11:35:52;100829.09;;;11.93;100.00
51289;BME280;37372;52.294;5.152;2022-11-04T11:38:30;100831.25;;;11.82;100.00
51289;BME280;37372;52.294;5.152;2022-11-04T11:41:08;100831.41;;;11.98;100.00
51289;BME280;37372;52.294;5.152;2022-11-04T11:43:37;100828.97;;;12.00;100.00
51289;BME280;37372;52.294;5.152;2022-11-04T11:46:04;100823.19;;;11.84;100.00
51289;BME280;37372;52.294;5.152;2022-11-04T11:51:05;100821.50;;;11.63;100.00
51289;BME280;37372;52.294;5.152;2022-11-04T11:53:31;100820.69;;;11.62;100.00
51289;BME280;37372;52.294;5.152;2022-11-04T11:58:45;100833.63;;;11.56;100.00
51289;BME280;37372;52.294;5.152;2022-11-04T12:04:21;100840.59;;;11.44;100.00
51289;BME280;37372;52.294;5.152;2022-11-04T12:09:26;100837.19;;;11.60;100.00
51289;BME280;37372;52.294;5.152;2022-11-04T12:12:25;100841.31;;;11.79;100.00
51289;BME280;37372;52.294;5.152;2022-11-04T12:15:17;100842.66;;;11.98;100.00
51289;BME280;37372;52.294;5.152;2022-11-04T12:17:57;100853.41;;;12.07;100.00
51289;BME280;37372;52.294;5.152;2022-11-04T12:20:35;100854.34;;;12.24;100.00
51289;BME280;37372;52.294;5.152;2022-11-04T12:26:10;100862.72;;;12.00;100.00
51289;BME280;37372;52.294;5.152;2022-11-04T12:28:54;100866.88;;;11.92;100.00
51289;BME280;37372;52.294;5.152;2022-11-04T12:34:00;100884.38;;;11.72;100.00
51289;BME280;37372;52.294;5.152;2022-11-04T12:36:58;100877.63;;;11.66;100.00
51289;BME280;37372;52.294;5.152;2022-11-04T12:40:06;100887.47;;;11.51;100.00
51289;BME280;37372;52.294;5.152;2022-11-04T12:42:46;100897.00;;;11.57;100.00
51289;BME280;37372;52.294;5.152;2022-11-04T12:45:42;100902.53;;;11.34;100.00
51289;BME280;37372;52.294;5.152;2022-11-04T12:51:58;100899.34;;;10.94;100.00
51289;BME280;37372;52.294;5.152;2022-11-04T12:56:35;100917.34;;;10.55;100.00
51289;BME280;37372;52.294;5.152;2022-11-04T12:59:19;100921.47;;;10.39;100.00
51289;BME280;37372;52.294;5.152;2022-11-04T13:01:54;100927.97;;;10.26;100.00
51289;BME280;37372;52.294;5.152;2022-11-04T13:04:29;100932.75;;;10.25;100.00
51289;BME280;37372;52.294;5.152;2022-11-04T13:09:44;100945.22;;;10.17;100.00
51289;BME280;37372;52.294;5.152;2022-11-04T13:12:14;100948.88;;;10.07;100.00
51289;BME280;37372;52.294;5.152;2022-11-04T13:14:59;100940.16;;;9.97;100.00
51289;BME280;37372;52.294;5.152;2022-11-04T13:17:32;100954.63;;;9.85;100.00
51289;BME280;37372;52.294;5.152;2022-11-04T13:20:44;100955.44;;;9.78;100.00
51289;BME280;37372;52.294;5.152;2022-11-04T13:22:51;100963.47;;;9.73;100.00
51289;BME280;37372;52.294;5.152;2022-11-04T13:25:36;100965.91;;;9.64;100.00
51289;BME280;37372;52.294;5.152;2022-11-04T13:28:09;100962.69;;;9.72;100.00
51289;BME280;37372;52.294;5.152;2022-11-04T13:30:48;100957.88;;;9.73;100.00
51289;BME280;37372;52.294;5.152;2022-11-04T13:33:39;100959.50;;;9.67;100.00
51289;BME280;37372;52.294;5.152;2022-11-04T13:39:05;100968.69;;;9.64;100.00
51289;BME280;37372;52.294;5.152;2022-11-04T13:44:27;100966.31;;;9.59;100.00
51289;BME280;37372;52.294;5.152;2022-11-04T13:46:57;100963.97;;;9.50;100.00
51289;BME280;37372;52.294;5.152;2022-11-04T13:49:26;100959.59;;;9.38;100.00
51289;BME280;37372;52.294;5.152;2022-11-04T13:52:10;100967.59;;;9.36;100.00
51289;BME280;37372;52.294;5.152;2022-11-04T13:54:41;100965.19;;;9.31;100.00
51289;BME280;37372;52.294;5.152;2022-11-04T13:57:18;100977.22;;;9.28;100.00
51289;BME280;37372;52.294;5.152;2022-11-04T14:18:36;100991.22;;;9.28;100.00
51289;BME280;37372;52.294;5.152;2022-11-04T14:21:18;100994.00;;;9.31;100.00
51289;BME280;37372;52.294;5.152;2022-11-04T14:23:52;100993.19;;;9.31;100.00
51289;BME280;37372;52.294;5.152;2022-11-04T14:26:25;101003.19;;;9.28;100.00
51289;BME280;37372;52.294;5.152;2022-11-04T14:29:23;101004.41;;;9.27;100.00
51289;BME280;37372;52.294;5.152;2022-11-04T14:31:51;101006.81;;;9.29;100.00
51289;BME280;37372;52.294;5.152;2022-11-04T14:34:29;101020.41;;;9.30;100.00
51289;BME280;37372;52.294;5.152;2022-11-04T14:36:59;101020.78;;;9.36;100.00
51289;BME280;37372;52.294;5.152;2022-11-04T14:39:33;101026.78;;;9.31;100.00
51289;BME280;37372;52.294;5.152;2022-11-04T14:42:02;101027.59;;;9.31;100.00
51289;BME280;37372;52.294;5.152;2022-11-04T14:47:21;101034.81;;;9.29;100.00
51289;BME280;37372;52.294;5.152;2022-11-04T14:50:01;101038.78;;;9.28;100.00
51289;BME280;37372;52.294;5.152;2022-11-04T14:52:30;101036.41;;;9.26;100.00
51289;BME280;37372;52.294;5.152;2022-11-04T14:55:12;101045.59;;;9.23;100.00
51289;BME280;37372;52.294;5.152;2022-11-04T14:58:12;101051.59;;;9.22;100.00
51289;BME280;37372;52.294;5.152;2022-11-04T15:00:36;101047.59;;;9.16;100.00
51289;BME280;37372;52.294;5.152;2022-11-04T15:05:34;101054.00;;;9.20;100.00
51289;BME280;37372;52.294;5.152;2022-11-04T15:08:27;101052.41;;;9.22;100.00
51289;BME280;37372;52.294;5.152;2022-11-04T15:11:20;101059.59;;;9.23;100.00
51289;BME280;37372;52.294;5.152;2022-11-04T15:14:23;101069.19;;;9.26;100.00
51289;BME280;37372;52.294;5.152;2022-11-04T15:16:55;101066.81;;;9.24;100.00